Time;durP1;ratioP1;P1;durP2;ratioP2;P2;SDS_P1;SDS_P2;PMS_P1;PMS_P2;Temp;Humidity;BMP_temperature;BMP_pressure;BME280_temperature;BME280_humidity;BME280_pressure;Samples;Min_cycle;Max_cycle;Signal;HPM_P1;HPM_P2
2022/01/17 00:01:24;;;;;;;34.97;21.47;;;;;;;-0.23;100.00;97413.19;5054795;28;20435;-77
2022/01/17 00:03:52;;;;;;;37.40;19.97;;;;;;;0.10;100.00;97446.28;5054756;28;20808;-77
2022/01/17 00:06:19;;;;;;;29.57;18.83;;;;;;;-0.01;100.00;97421.91;5054298;28;20433;-77
2022/01/17 00:08:46;;;;;;;31.23;19.73;;;;;;;0.03;100.00;97438.63;5037915;28;20494;-77
2022/01/17 00:11:14;;;;;;;35.83;20.30;;;;;;;-0.20;100.00;97394.53;5054376;28;20480;-77
2022/01/17 00:13:42;;;;;;;32.47;21.10;;;;;;;0.03;100.00;97425.66;5053825;28;20798;-77
2022/01/17 00:21:06;;;;;;;34.43;20.10;;;;;;;-0.76;100.00;97294.72;5055053;28;20438;-77
2022/01/17 00:23:33;;;;;;;36.97;22.80;;;;;;;0.05;100.00;97438.41;5054872;28;20956;-77
2022/01/17 00:26:00;;;;;;;36.90;22.23;;;;;;;-0.14;100.00;97401.38;5056225;28;20422;-76
2022/01/17 00:28:26;;;;;;;33.77;19.57;;;;;;;0.09;100.00;97437.72;5036959;28;20976;-77
2022/01/17 00:30:53;;;;;;;39.13;23.70;;;;;;;0.08;100.00;97417.13;5053999;28;20924;-77
2022/01/17 00:33:20;;;;;;;37.70;22.07;;;;;;;0.14;100.00;97429.22;5053551;28;20533;-77
2022/01/17 00:35:47;;;;;;;32.63;19.20;;;;;;;-0.14;100.00;97394.38;5036554;28;20457;-78
2022/01/17 00:38:14;;;;;;;35.30;24.13;;;;;;;-0.23;100.00;97393.19;5053490;28;20526;-78
2022/01/17 00:40:41;;;;;;;30.57;20.67;;;;;;;0.15;100.00;97443.81;5053657;28;20444;-77
2022/01/17 00:43:09;;;;;;;30.73;18.37;;;;;;;0.15;100.00;97443.81;5053285;28;20982;-77
2022/01/17 00:45:38;;;;;;;42.07;24.37;;;;;;;-0.14;100.00;97385.78;5054760;28;20429;-77
2022/01/17 00:48:05;;;;;;;47.33;31.43;;;;;;;-0.04;100.00;97401.59;5053507;28;20463;-78
2022/01/17 00:50:33;;;;;;;41.00;26.10;;;;;;;0.15;100.00;97423.00;5053270;28;20433;-77
2022/01/17 00:53:04;;;;;;;34.03;21.23;;;;;;;-0.23;100.00;97366.41;5052818;28;20851;-77
2022/01/17 00:55:32;;;;;;;29.87;17.60;;;;;;;-0.04;100.00;97381.56;5053093;28;20794;-77
2022/01/17 00:57:59;;;;;;;29.40;19.03;;;;;;;-0.08;100.00;97377.88;5052753;28;20886;-77
2022/01/17 01:00:27;;;;;;;37.20;21.77;;;;;;;0.10;100.00;97409.91;5052894;28;20536;-77
2022/01/17 01:02:54;;;;;;;31.73;19.13;;;;;;;0.17;100.00;97411.34;5052518;28;20453;-77
2022/01/17 01:05:22;;;;;;;29.07;19.03;;;;;;;0.05;100.00;97394.22;5052962;28;20432;-77
2022/01/17 01:07:50;;;;;;;17.43;12.23;;;;;;;-0.21;100.00;97348.78;5054121;28;20506;-77
2022/01/17 01:10:17;;;;;;;23.00;16.50;;;;;;;-0.16;100.00;97352.25;5035721;28;20483;-77
2022/01/17 01:12:46;;;;;;;27.70;19.57;;;;;;;-0.10;100.00;97355.72;5052173;28;20822;-77
2022/01/17 01:15:23;;;;;;;31.43;19.80;;;;;;;0.11;100.00;97382.88;5035769;28;20465;-77
2022/01/17 01:17:58;;;;;;;30.60;20.57;;;;;;;0.01;100.00;97370.50;5035880;28;21058;-77
2022/01/17 01:28:23;;;;;;;16.63;10.70;;;;;;;0.03;100.00;97365.84;5051779;28;20503;-77
2022/01/17 01:30:53;;;;;;;33.10;21.43;;;;;;;0.08;100.00;97386.72;5035293;28;20447;-77
2022/01/17 01:33:30;;;;;;;28.30;18.10;;;;;;;0.15;100.00;97387.41;5051701;28;20445;-77
2022/01/17 01:36:03;;;;;;;25.93;16.50;;;;;;;-0.10;100.00;97337.53;5035268;28;20833;-77
2022/01/17 01:38:29;;;;;;;23.33;15.37;;;;;;;0.13;100.00;97368.63;5053137;28;20445;-76
2022/01/17 01:40:56;;;;;;;16.77;10.30;;;;;;;-0.06;100.00;97329.03;5035307;28;20436;-77
2022/01/17 01:43:23;;;;;;;25.83;16.60;;;;;;;0.14;100.00;97362.41;5051543;28;20449;-77
2022/01/17 01:45:56;;;;;;;26.50;15.40;;;;;;;0.15;100.00;97361.38;5052719;28;20429;-77
2022/01/17 01:48:24;;;;;;;18.67;15.47;;;;;;;0.04;100.00;97346.63;5034616;28;20461;-76
2022/01/17 01:50:51;;;;;;;20.17;13.90;;;;;;;-0.24;100.00;97300.66;5035103;28;20525;-77
2022/01/17 01:53:18;;;;;;;17.27;13.20;;;;;;;0.05;100.00;97342.22;5052847;28;20437;-77
2022/01/17 01:55:45;;;;;;;19.80;13.60;;;;;;;-0.14;100.00;97326.00;5051149;28;20556;-77
2022/01/17 01:58:12;;;;;;;19.80;14.47;;;;;;;0.05;100.00;97342.22;5051184;28;20481;-77
2022/01/17 02:00:39;;;;;;;24.00;17.57;;;;;;;-0.02;100.00;97335.34;5034646;28;20441;-77
2022/01/17 02:03:05;;;;;;;23.90;16.17;;;;;;;0.00;100.00;97348.13;5050999;28;20789;-77
2022/01/17 02:05:53;;;;;;;24.20;13.73;;;;;;;-0.05;100.00;97335.81;5052377;28;20433;-77
2022/01/17 02:08:20;;;;;;;28.40;17.67;;;;;;;0.17;100.00;97372.34;5030044;28;20482;-77
2022/01/17 02:10:46;;;;;;;28.50;15.80;;;;;;;0.00;100.00;97337.72;5030054;28;20857;-77
2022/01/17 02:13:13;;;;;;;17.93;12.47;;;;;;;0.05;100.00;97352.63;5013388;28;20469;-77
2022/01/17 02:15:42;;;;;;;17.73;13.27;;;;;;;0.02;100.00;97340.88;4997200;28;20593;-77
2022/01/17 02:18:12;;;;;;;16.30;13.53;;;;;;;-0.19;100.00;97311.13;5013288;28;20501;-77
2022/01/17 02:20:44;;;;;;;30.60;17.10;;;;;;;0.14;100.00;97369.44;5013486;28;20434;-77
2022/01/17 02:23:15;;;;;;;28.13;18.67;;;;;;;0.21;100.00;97377.84;5030200;28;20890;-77
2022/01/17 02:25:42;;;;;;;22.13;14.67;;;;;;;-0.04;100.00;97342.59;5029822;28;20441;-77
2022/01/17 02:28:08;;;;;;;25.00;16.90;;;;;;;0.04;100.00;97330.25;5013009;28;20464;-76
2022/01/17 02:30:35;;;;;;;22.90;15.90;;;;;;;-0.07;100.00;97313.69;5013141;28;20445;-76
2022/01/17 02:33:03;;;;;;;21.97;15.00;;;;;;;0.21;100.00;97352.66;5013202;28;20439;-77
2022/01/17 02:35:30;;;;;;;19.87;13.73;;;;;;;-0.17;100.00;97295.31;5029723;28;20464;-76
2022/01/17 02:37:57;;;;;;;21.50;15.70;;;;;;;-0.02;100.00;97327.53;5013261;28;20466;-77
2022/01/17 02:40:25;;;;;;;15.40;10.70;;;;;;;0.11;100.00;97339.47;5029654;28;20465;-76
2022/01/17 02:43:00;;;;;;;19.40;12.47;;;;;;;0.19;100.00;97335.72;5013302;28;20480;-77
2022/01/17 02:48:22;;;;;;;19.13;10.73;;;;;;;0.18;100.00;97352.34;5049752;28;20472;-77
2022/01/17 02:50:50;;;;;;;26.33;16.57;;;;;;;0.17;100.00;97353.34;5050528;28;20445;-77
2022/01/17 02:53:17;;;;;;;19.07;11.87;;;;;;;0.20;100.00;97342.47;5052564;28;20437;-76
2022/01/17 02:55:46;;;;;;;25.57;16.90;;;;;;;0.20;100.00;97345.09;5033858;28;21078;-76
2022/01/17 02:58:13;;;;;;;19.07;13.60;;;;;;;-0.09;100.00;97306.13;5033799;28;20465;-76
2022/01/17 03:00:40;;;;;;;24.77;15.53;;;;;;;0.04;100.00;97312.06;5050589;28;20475;-77
2022/01/17 03:03:12;;;;;;;17.73;11.93;;;;;;;0.01;100.00;97307.31;5050460;28;20452;-76
2022/01/17 03:05:39;;;;;;;17.03;12.90;;;;;;;0.16;100.00;97329.16;5050450;28;20476;-76
2022/01/17 03:08:06;;;;;;;25.63;16.87;;;;;;;0.16;100.00;97330.97;5051669;28;20544;-76
2022/01/17 03:13:04;;;;;;;19.53;14.50;;;;;;;-0.25;100.00;97285.31;5051585;28;20480;-76
2022/01/17 03:15:31;;;;;;;20.47;14.77;;;;;;;0.17;100.00;97340.34;5050396;28;20555;-76
2022/01/17 03:17:58;;;;;;;21.40;12.93;;;;;;;-0.07;100.00;97295.50;5033735;28;20595;-76
2022/01/17 03:20:25;;;;;;;13.67;10.13;;;;;;;0.19;100.00;97302.69;5051774;28;20482;-76
2022/01/17 03:22:52;;;;;;;21.13;13.50;;;;;;;0.20;100.00;97314.66;5050320;28;20859;-76
2022/01/17 03:25:18;;;;;;;21.27;14.70;;;;;;;0.00;100.00;97288.34;5050171;28;20468;-76
2022/01/17 03:27:45;;;;;;;19.57;12.90;;;;;;;0.18;100.00;97308.13;5050349;28;20545;-76
2022/01/17 03:30:12;;;;;;;22.83;16.50;;;;;;;0.20;100.00;97308.69;5050198;28;20457;-75
2022/01/17 03:32:39;;;;;;;26.37;16.93;;;;;;;-0.10;100.00;97264.78;5051745;28;20454;-75
2022/01/17 03:35:06;;;;;;;25.20;18.20;;;;;;;0.17;100.00;97304.75;5050111;28;20457;-75
2022/01/17 03:37:33;;;;;;;20.40;13.10;;;;;;;0.07;100.00;97301.97;5051387;28;20480;-76
2022/01/17 03:40:00;;;;;;;20.17;13.90;;;;;;;0.24;100.00;97335.78;5050049;28;20960;-76
2022/01/17 03:42:26;;;;;;;21.03;14.60;;;;;;;0.04;100.00;97317.25;5050152;28;20837;-75
2022/01/17 03:44:54;;;;;;;26.07;15.60;;;;;;;0.27;100.00;97340.53;5051580;28;20464;-75
2022/01/17 03:47:21;;;;;;;23.93;17.87;;;;;;;0.03;100.00;97297.47;5049901;28;20448;-75
2022/01/17 03:49:47;;;;;;;22.33;16.23;;;;;;;-0.15;100.00;97262.06;5050133;28;20433;-75
2022/01/17 03:52:14;;;;;;;25.17;16.70;;;;;;;0.19;100.00;97327.91;5033400;28;20819;-76
2022/01/17 03:54:41;;;;;;;22.67;11.40;;;;;;;0.02;100.00;97301.88;5050230;28;20429;-75
2022/01/17 03:57:08;;;;;;;26.63;16.00;;;;;;;-0.11;100.00;97274.38;5050054;28;20469;-75
2022/01/17 03:59:35;;;;;;;17.17;12.83;;;;;;;0.08;100.00;97277.53;5050100;28;20987;-75
2022/01/17 04:02:03;;;;;;;19.70;13.80;;;;;;;0.20;100.00;97306.88;5051298;28;21013;-75
2022/01/17 04:04:30;;;;;;;19.13;12.60;;;;;;;0.22;100.00;97311.81;5049884;28;20448;-75
2022/01/17 04:06:56;;;;;;;21.93;16.50;;;;;;;0.16;100.00;97294.59;5051167;28;20485;-75
2022/01/17 04:09:23;;;;;;;19.13;13.37;;;;;;;0.14;100.00;97281.03;5052183;28;20517;-76
2022/01/17 04:11:50;;;;;;;11.57;9.40;;;;;;;0.31;100.00;97289.63;5053400;28;20453;-75
2022/01/17 04:14:17;;;;;;;11.10;8.40;;;;;;;0.08;100.00;97243.75;5036941;28;20968;-75
2022/01/17 04:16:44;;;;;;;12.07;8.77;;;;;;;0.09;100.00;97232.31;5053209;28;20597;-77
2022/01/17 04:19:11;;;;;;;13.97;9.20;;;;;;;0.29;100.00;97282.06;5053418;28;20455;-75
2022/01/17 04:21:38;;;;;;;14.33;10.67;;;;;;;0.33;100.00;97312.78;5054569;28;20524;-75
2022/01/17 04:24:05;;;;;;;22.33;15.00;;;;;;;0.13;100.00;97285.41;5053141;28;20960;-75
2022/01/17 04:26:32;;;;;;;16.07;9.93;;;;;;;-0.12;100.00;97259.03;5036537;28;20453;-75
2022/01/17 04:28:58;;;;;;;25.50;14.33;;;;;;;0.15;100.00;97314.59;5036671;28;20985;-75
2022/01/17 04:31:25;;;;;;;17.20;13.07;;;;;;;0.17;100.00;97311.75;5054466;28;20532;-75
2022/01/17 04:33:52;;;;;;;17.10;13.30;;;;;;;0.16;100.00;97297.19;5054361;28;20934;-75
2022/01/17 04:36:19;;;;;;;17.30;12.53;;;;;;;0.13;100.00;97287.22;5052972;28;20461;-75
2022/01/17 04:38:45;;;;;;;19.47;12.07;;;;;;;0.17;100.00;97304.75;5053071;28;20991;-75
2022/01/17 04:41:15;;;;;;;17.93;10.47;;;;;;;0.21;100.00;97303.25;5053047;28;20449;-75
2022/01/17 04:46:11;;;;;;;18.53;12.70;;;;;;;0.32;100.00;97306.78;5052673;28;20441;-75
2022/01/17 04:48:38;;;;;;;16.40;11.47;;;;;;;0.38;100.00;97328.47;5052921;28;20433;-75
2022/01/17 04:51:05;;;;;;;16.10;9.67;;;;;;;0.38;100.00;97326.66;5054275;28;20978;-76
2022/01/17 04:53:32;;;;;;;19.17;11.20;;;;;;;0.43;100.00;97342.34;5052913;28;20476;-76
2022/01/17 04:55:58;;;;;;;25.17;14.90;;;;;;;-0.02;100.00;97266.97;5054008;28;20463;-76
2022/01/17 04:58:25;;;;;;;16.87;13.90;;;;;;;0.31;100.00;97320.81;5052766;28;20498;-76
2022/01/17 05:00:52;;;;;;;19.50;14.33;;;;;;;0.42;100.00;97313.97;5052901;28;20441;-76
2022/01/17 05:03:24;;;;;;;10.87;8.40;;;;;;;0.31;100.00;97323.44;5036179;28;20488;-76
2022/01/17 05:05:53;;;;;;;16.80;11.10;;;;;;;0.33;100.00;97315.38;5036488;28;20483;-75
2022/01/17 05:08:20;;;;;;;19.93;13.30;;;;;;;0.48;100.00;97331.22;5035887;28;20552;-75
2022/01/17 05:10:52;;;;;;;23.00;15.73;;;;;;;0.36;100.00;97305.28;5052313;28;21257;-75
2022/01/17 05:13:23;;;;;;;25.83;18.10;;;;;;;0.31;100.00;97313.03;5053787;28;20417;-75
2022/01/17 05:16:04;;;;;;;21.53;13.73;;;;;;;0.34;100.00;97307.34;5035842;28;20496;-75
2022/01/17 05:20:57;;;;;;;20.37;15.17;;;;;;;0.23;100.00;97309.00;5052306;28;20441;-76
2022/01/17 05:23:24;;;;;;;24.23;16.47;;;;;;;0.57;100.00;97350.63;5051757;28;20460;-74
2022/01/17 05:25:51;;;;;;;17.60;12.57;;;;;;;0.40;100.00;97337.63;5053196;28;20464;-74
2022/01/17 05:28:17;;;;;;;22.03;15.57;;;;;;;0.31;100.00;97320.81;5053035;28;20496;-74
2022/01/17 05:30:44;;;;;;;14.80;11.27;;;;;;;0.38;100.00;97324.03;5052219;28;20430;-75
2022/01/17 05:33:11;;;;;;;21.23;15.23;;;;;;;0.44;100.00;97325.72;5052237;28;21139;-75
2022/01/17 05:35:38;;;;;;;25.83;16.33;;;;;;;0.29;100.00;97309.88;5052401;28;20499;-75
2022/01/17 05:38:10;;;;;;;20.57;12.40;;;;;;;0.55;100.00;97329.28;5052034;28;20449;-75
2022/01/17 05:40:36;;;;;;;19.87;13.90;;;;;;;0.37;100.00;97306.88;5051846;28;20900;-74
2022/01/17 05:43:03;;;;;;;18.17;13.53;;;;;;;0.06;100.00;97247.63;5051788;28;20971;-75
2022/01/17 05:45:30;;;;;;;13.57;10.57;;;;;;;0.51;100.00;97302.91;5051802;28;20437;-75
2022/01/17 05:47:57;;;;;;;18.93;13.33;;;;;;;0.56;100.00;97317.84;5051836;28;20499;-74
2022/01/17 05:50:23;;;;;;;21.20;16.10;;;;;;;0.34;100.00;97286.53;5035177;28;20507;-74
2022/01/17 05:52:50;;;;;;;20.83;13.70;;;;;;;0.42;100.00;97309.56;5053032;28;20889;-74
2022/01/17 05:55:17;;;;;;;23.23;14.67;;;;;;;0.58;100.00;97328.78;5051786;28;20822;-74
2022/01/17 05:57:44;;;;;;;20.80;15.73;;;;;;;0.49;100.00;97327.59;5052752;28;20563;-74
2022/01/17 06:00:14;;;;;;;21.90;14.20;;;;;;;0.63;100.00;97354.88;5052630;28;20461;-74
2022/01/17 06:02:40;;;;;;;24.53;15.97;;;;;;;0.54;100.00;97356.31;5051577;28;20449;-74
2022/01/17 06:05:08;;;;;;;21.50;15.30;;;;;;;0.66;100.00;97351.00;5034633;28;20499;-74
2022/01/17 06:07:35;;;;;;;23.30;15.33;;;;;;;0.58;100.00;97334.00;5052478;28;20555;-74
2022/01/17 06:10:02;;;;;;;19.73;16.10;;;;;;;0.58;100.00;97328.78;5051510;28;20433;-75
2022/01/17 06:12:29;;;;;;;23.60;15.43;;;;;;;0.28;100.00;97290.09;5034758;28;20580;-75
2022/01/17 06:14:57;;;;;;;13.10;10.20;;;;;;;0.56;100.00;97318.63;5034863;28;20469;-75
2022/01/17 06:17:24;;;;;;;17.00;13.53;;;;;;;0.66;100.00;97341.38;5051244;28;20522;-75
2022/01/17 06:19:51;;;;;;;17.00;13.50;;;;;;;0.59;100.00;97333.75;5034844;28;20437;-75
2022/01/17 06:22:18;;;;;;;21.50;14.60;;;;;;;0.67;100.00;97326.56;5052516;28;20844;-74
2022/01/17 06:24:45;;;;;;;15.30;12.97;;;;;;;0.53;100.00;97319.06;5034820;28;20459;-74
2022/01/17 06:27:11;;;;;;;22.57;14.33;;;;;;;0.73;100.00;97367.28;5052763;28;20471;-74
2022/01/17 06:29:38;;;;;;;17.97;12.80;;;;;;;0.12;100.00;97280.44;5051732;28;20528;-74
2022/01/17 06:32:05;;;;;;;12.97;10.10;;;;;;;0.70;100.00;97363.34;5034727;28;20445;-74
2022/01/17 06:34:53;;;;;;;17.70;12.70;;;;;;;0.80;100.00;97362.69;5058468;28;20425;-74
2022/01/17 06:37:20;;;;;;;15.80;13.07;;;;;;;0.56;100.00;97339.44;5038148;28;20481;-74
2022/01/17 06:39:49;;;;;;;13.93;11.87;;;;;;;0.79;100.00;97368.91;5039000;28;20445;-74
2022/01/17 06:42:16;;;;;;;17.10;11.73;;;;;;;0.71;100.00;97345.91;5052979;28;21235;-73
2022/01/17 06:44:43;;;;;;;17.07;12.43;;;;;;;0.81;100.00;97367.66;5057092;28;20441;-74
2022/01/17 06:47:10;;;;;;;10.33;8.73;;;;;;;0.57;100.00;97293.41;5065474;28;20449;-74
2022/01/17 06:49:36;;;;;;;11.27;8.90;;;;;;;0.73;100.00;97315.22;5052563;28;20465;-74
2022/01/17 06:52:03;;;;;;;13.70;9.33;;;;;;;0.82;100.00;97324.22;5051410;28;20484;-73
2022/01/17 06:54:30;;;;;;;14.20;10.90;;;;;;;0.63;100.00;97302.06;5052299;28;20428;-74
2022/01/17 06:56:57;;;;;;;13.90;9.63;;;;;;;0.67;100.00;97306.56;5050708;28;20465;-74
2022/01/17 06:59:23;;;;;;;14.40;10.40;;;;;;;0.67;100.00;97297.94;5051041;28;20512;-74
2022/01/17 07:01:50;;;;;;;14.07;10.50;;;;;;;0.61;100.00;97298.91;5034168;28;20496;-74
2022/01/17 07:04:17;;;;;;;14.13;10.80;;;;;;;0.70;100.00;97328.72;5051627;28;20433;-74
2022/01/17 07:06:43;;;;;;;12.87;9.00;;;;;;;0.53;100.00;97313.09;5050272;28;20480;-74
2022/01/17 07:09:14;;;;;;;16.77;11.87;;;;;;;0.69;100.00;97355.75;5050198;28;20937;-74
2022/01/17 07:11:41;;;;;;;14.57;11.53;;;;;;;0.28;100.00;97303.09;5050342;28;20437;-74
2022/01/17 07:14:09;;;;;;;17.27;11.50;;;;;;;0.65;100.00;97378.84;5050256;28;20433;-74
2022/01/17 07:16:36;;;;;;;12.67;9.87;;;;;;;0.57;100.00;97364.44;5050055;28;20496;-74
2022/01/17 07:19:03;;;;;;;17.53;11.83;;;;;;;0.69;100.00;97410.41;5050166;28;20441;-74
2022/01/17 07:21:30;;;;;;;14.70;11.50;;;;;;;0.64;100.00;97412.91;5050256;28;20473;-74
2022/01/17 07:23:57;;;;;;;18.27;12.03;;;;;;;0.56;100.00;97403.69;5050170;28;20438;-74
2022/01/17 07:26:24;;;;;;;15.63;10.97;;;;;;;0.52;100.00;97407.78;5049910;28;20948;-74
2022/01/17 07:28:51;;;;;;;9.43;7.87;;;;;;;0.58;100.00;97423.25;5033491;28;20441;-74
2022/01/17 07:31:18;;;;;;;12.90;9.10;;;;;;;0.73;100.00;97422.72;5050109;28;20433;-74
2022/01/17 07:33:45;;;;;;;17.47;12.70;;;;;;;0.46;100.00;97365.28;5049884;28;20534;-74
2022/01/17 07:36:17;;;;;;;12.87;9.20;;;;;;;0.67;100.00;97368.19;5034723;28;20497;-74
2022/01/17 07:38:44;;;;;;;14.20;10.50;;;;;;;0.55;100.00;97335.25;5051306;28;20439;-74
2022/01/17 07:41:12;;;;;;;13.63;9.20;;;;;;;0.10;100.00;97280.69;5033362;28;20441;-74
2022/01/17 07:43:56;;;;;;;9.53;8.60;;;;;;;0.52;100.00;97340.91;5049853;28;20456;-76
2022/01/17 07:46:34;;;;;;;13.73;10.23;;;;;;;0.42;100.00;97335.56;5036620;28;20441;-74
2022/01/17 07:49:13;;;;;;;11.40;9.10;;;;;;;0.67;100.00;97374.22;5055187;28;20885;-74
2022/01/17 07:51:42;;;;;;;10.13;8.43;;;;;;;0.55;100.00;97350.88;5053624;28;20465;-74
2022/01/17 07:54:11;;;;;;;11.33;8.27;;;;;;;0.69;100.00;97368.78;5053592;28;20952;-74
2022/01/17 07:56:40;;;;;;;10.17;7.73;;;;;;;0.55;100.00;97340.47;5054611;28;20480;-74
2022/01/17 07:59:08;;;;;;;10.93;8.43;;;;;;;0.69;100.00;97364.34;5053657;28;20432;-74
2022/01/17 08:01:36;;;;;;;11.83;9.10;;;;;;;0.51;100.00;97343.75;5036749;28;20884;-74
2022/01/17 08:04:04;;;;;;;7.97;7.13;;;;;;;0.63;100.00;97354.88;5053431;28;20444;-74
2022/01/17 08:06:36;;;;;;;9.80;8.37;;;;;;;0.40;100.00;97323.81;5053337;28;20996;-74
2022/01/17 08:09:15;;;;;;;12.60;8.50;;;;;;;0.56;100.00;97333.44;5054632;28;20539;-74
2022/01/17 08:12:00;;;;;;;15.00;7.33;;;;;;;0.52;100.00;97340.91;5053254;28;20536;-74
2022/01/17 08:14:27;;;;;;;11.30;8.80;;;;;;;0.77;100.00;97370.97;5036798;28;20437;-74
2022/01/17 08:16:54;;;;;;;11.20;8.83;;;;;;;0.57;100.00;97338.41;5053133;28;20902;-74
2022/01/17 08:19:24;;;;;;;12.50;8.67;;;;;;;0.83;100.00;97376.03;5036459;28;20441;-74
2022/01/17 08:21:57;;;;;;;9.63;7.93;;;;;;;0.71;100.00;97343.28;5053129;28;20424;-74
2022/01/17 08:24:23;;;;;;;14.00;10.27;;;;;;;0.72;100.00;97343.06;5036612;28;20472;-74
2022/01/17 08:26:50;;;;;;;11.67;9.50;;;;;;;0.91;100.00;97367.00;5036479;28;20560;-74
2022/01/17 08:29:17;;;;;;;16.00;10.70;;;;;;;0.91;100.00;97381.84;5052909;28;20476;-74
2022/01/17 08:31:47;;;;;;;14.43;9.80;;;;;;;0.76;100.00;97364.19;5052914;28;20441;-74
2022/01/17 08:34:17;;;;;;;20.27;11.20;;;;;;;0.88;100.00;97351.88;5054041;28;20439;-74
2022/01/17 08:36:45;;;;;;;16.73;11.30;;;;;;;0.71;100.00;97299.84;5053974;28;20498;-74
2022/01/17 08:39:14;;;;;;;15.37;9.53;;;;;;;0.88;100.00;97326.63;5052879;28;20469;-74
2022/01/17 08:41:42;;;;;;;20.30;11.50;;;;;;;0.90;100.00;97331.59;5053916;28;20978;-74
2022/01/17 08:44:12;;;;;;;15.10;10.60;;;;;;;0.96;100.00;97348.88;5052652;28;20452;-74
2022/01/17 08:46:40;;;;;;;18.50;12.20;;;;;;;0.72;100.00;97331.84;5053946;28;20499;-74
2022/01/17 08:49:07;;;;;;;18.27;13.97;;;;;;;0.65;100.00;97324.19;5052658;28;20484;-74
2022/01/17 08:51:34;;;;;;;16.03;13.10;;;;;;;0.81;100.00;97359.06;5052375;28;20805;-74
2022/01/17 08:54:00;;;;;;;20.33;11.80;;;;;;;0.90;100.00;97388.88;5052535;28;20480;-74
2022/01/17 08:56:29;;;;;;;22.20;13.13;;;;;;;0.70;100.00;97365.94;5051963;28;20496;-74
2022/01/17 08:58:57;;;;;;;17.50;12.17;;;;;;;0.92;100.00;97420.66;5053616;28;20434;-74
2022/01/17 09:01:24;;;;;;;19.93;12.50;;;;;;;0.88;100.00;97417.75;5052010;28;20463;-74
2022/01/17 09:03:52;;;;;;;21.13;13.00;;;;;;;0.96;100.00;97426.19;5052256;28;20433;-75
2022/01/17 09:06:19;;;;;;;19.83;13.43;;;;;;;0.94;100.00;97426.44;5053527;28;20448;-75
2022/01/17 09:08:46;;;;;;;18.70;11.67;;;;;;;0.76;100.00;97390.22;5035720;28;20532;-75
2022/01/17 09:11:12;;;;;;;21.30;13.77;;;;;;;0.73;100.00;97382.88;5052212;28;20464;-75
2022/01/17 09:13:39;;;;;;;21.87;14.13;;;;;;;0.65;100.00;97367.66;5052028;28;20433;-75
2022/01/17 09:16:08;;;;;;;19.17;12.70;;;;;;;0.73;100.00;97360.25;5052023;28;20487;-75
2022/01/17 09:18:35;;;;;;;22.90;11.80;;;;;;;1.04;100.00;97423.19;5035440;28;20452;-75
2022/01/17 09:21:02;;;;;;;15.00;10.90;;;;;;;0.79;100.00;97393.13;5051894;28;20499;-75
2022/01/17 09:23:29;;;;;;;9.20;7.60;;;;;;;0.75;100.00;97375.63;5053241;28;20936;-75
2022/01/17 09:25:56;;;;;;;14.73;10.70;;;;;;;1.08;100.00;97437.31;5051959;28;20472;-74
2022/01/17 09:28:23;;;;;;;15.90;8.20;;;;;;;1.09;100.00;97441.50;5051864;28;20445;-74
2022/01/17 09:30:50;;;;;;;16.53;12.30;;;;;;;1.10;100.00;97445.69;5051850;28;20433;-74
2022/01/17 09:33:17;;;;;;;19.93;13.60;;;;;;;1.01;100.00;97453.09;5051744;28;20483;-75
2022/01/17 09:35:44;;;;;;;19.13;14.00;;;;;;;0.94;100.00;97449.88;5051461;28;20583;-74
2022/01/17 09:38:11;;;;;;;11.70;9.83;;;;;;;1.00;100.00;97443.69;5051467;28;20547;-75
2022/01/17 09:40:38;;;;;;;10.37;8.00;;;;;;;1.00;100.00;97429.91;5034987;28;20516;-75
2022/01/17 09:43:25;;;;;;;13.20;8.80;;;;;;;1.11;100.00;97478.50;5052905;28;20428;-74
2022/01/17 09:45:52;;;;;;;21.60;13.43;;;;;;;1.03;100.00;97429.41;5051378;28;20437;-74
2022/01/17 09:48:22;;;;;;;23.63;15.60;;;;;;;0.90;100.00;97414.91;5052896;28;20441;-74
2022/01/17 09:51:03;;;;;;;22.40;13.80;;;;;;;1.05;100.00;97458.59;5052581;28;20480;-74
2022/01/17 09:53:38;;;;;;;15.03;11.30;;;;;;;1.10;100.00;97467.31;5051252;28;20873;-74
2022/01/17 09:56:07;;;;;;;11.80;8.40;;;;;;;1.14;100.00;97465.00;5051461;28;20440;-74
2022/01/17 09:58:39;;;;;;;18.00;11.87;;;;;;;1.11;100.00;97468.88;5051166;28;20884;-74
2022/01/17 10:01:07;;;;;;;18.30;11.90;;;;;;;0.89;100.00;97424.53;5052501;28;20502;-74
2022/01/17 10:03:38;;;;;;;16.27;11.70;;;;;;;1.21;100.00;97457.03;5052351;28;20498;-74
2022/01/17 10:06:05;;;;;;;24.23;13.63;;;;;;;1.03;100.00;97426.81;5050991;28;20437;-74
2022/01/17 10:08:32;;;;;;;19.77;12.73;;;;;;;1.04;100.00;97431.00;5050287;28;20975;-74
2022/01/17 10:11:01;;;;;;;17.30;8.67;;;;;;;1.26;100.00;97449.28;5052610;28;20852;-75
2022/01/17 10:13:34;;;;;;;9.63;6.83;;;;;;;1.07;100.00;97418.31;5034432;28;20445;-75
2022/01/17 10:16:00;;;;;;;15.33;11.10;;;;;;;1.23;100.00;97444.56;5034396;28;20487;-74
2022/01/17 10:18:45;;;;;;;14.73;9.10;;;;;;;1.28;100.00;97447.22;5034243;28;20461;-75
2022/01/17 10:21:19;;;;;;;16.10;10.17;;;;;;;1.14;100.00;97421.53;5050933;28;20484;-75
2022/01/17 10:34:57;;;;;;;14.70;10.33;;;;;;;1.26;100.00;97397.19;5050588;28;20440;-75
2022/01/17 10:37:27;;;;;;;14.27;9.10;;;;;;;1.21;100.00;97379.69;5033736;28;20472;-75
2022/01/17 10:39:59;;;;;;;12.10;9.30;;;;;;;1.31;100.00;97386.84;5051907;28;20888;-75
2022/01/17 10:42:42;;;;;;;8.70;6.63;;;;;;;1.45;100.00;97401.09;5050479;28;20437;-75
2022/01/17 10:45:11;;;;;;;14.60;9.70;;;;;;;1.50;100.00;97421.25;5033882;28;20429;-75
2022/01/17 10:47:43;;;;;;;13.80;10.27;;;;;;;1.48;100.00;97409.25;5050475;28;20971;-75
2022/01/17 10:50:18;;;;;;;11.80;7.60;;;;;;;1.46;100.00;97411.28;5033757;28;20441;-75
2022/01/17 10:52:57;;;;;;;13.60;9.80;;;;;;;1.38;100.00;97393.47;5034389;28;20433;-75
2022/01/17 10:55:27;;;;;;;18.83;11.30;;;;;;;1.28;100.00;97393.31;5050440;28;20920;-74
2022/01/17 10:58:01;;;;;;;9.57;7.73;;;;;;;1.29;100.00;97375.88;5050111;28;20508;-75
2022/01/17 11:00:31;;;;;;;11.43;7.43;;;;;;;1.29;100.00;97365.47;5050321;28;20471;-75
2022/01/17 11:03:01;;;;;;;10.97;7.20;;;;;;;1.38;100.00;97374.44;5050185;28;20449;-75
2022/01/17 11:05:28;;;;;;;12.87;8.70;;;;;;;1.23;100.00;97356.00;5052192;28;20447;-75
2022/01/17 11:07:58;;;;;;;17.00;10.10;;;;;;;1.22;100.00;97331.78;5051533;28;20455;-75
2022/01/17 11:10:27;;;;;;;15.50;9.47;;;;;;;1.19;100.00;97350.47;5050423;28;20506;-75
2022/01/17 11:12:58;;;;;;;16.60;10.27;;;;;;;1.39;100.00;97381.22;5050096;28;20881;-75
2022/01/17 11:15:25;;;;;;;14.77;11.30;;;;;;;1.32;100.00;97363.16;5050155;28;20471;-75
2022/01/17 11:17:57;;;;;;;12.40;9.30;;;;;;;1.29;100.00;97355.03;5049905;28;20461;-75
2022/01/17 11:20:27;;;;;;;11.33;8.13;;;;;;;1.52;100.00;97396.50;5037369;28;20469;-75
2022/01/17 11:22:58;;;;;;;13.73;10.87;;;;;;;1.40;100.00;97362.75;5054043;28;20463;-75
2022/01/17 11:25:29;;;;;;;15.10;8.80;;;;;;;1.59;100.00;97410.13;5054099;28;21012;-75
2022/01/17 11:27:55;;;;;;;15.63;10.97;;;;;;;1.60;100.00;97398.69;5037597;28;20456;-75
2022/01/17 11:30:22;;;;;;;10.20;7.80;;;;;;;1.65;100.00;97411.00;5055398;28;20433;-75
2022/01/17 11:32:51;;;;;;;12.70;8.20;;;;;;;1.64;100.00;97418.03;5037735;28;20440;-75
2022/01/17 11:35:20;;;;;;;11.83;7.60;;;;;;;1.59;100.00;97404.13;5053708;28;20523;-75
2022/01/17 11:37:49;;;;;;;11.33;8.67;;;;;;;1.46;100.00;97389.63;5055064;28;20519;-75
2022/01/17 11:40:22;;;;;;;9.23;8.20;;;;;;;1.58;100.00;97395.53;5054963;28;20463;-75
2022/01/17 11:42:51;;;;;;;11.13;6.33;;;;;;;1.52;100.00;97391.28;5053893;28;20472;-75
2022/01/17 11:45:21;;;;;;;9.53;8.13;;;;;;;1.48;100.00;97390.22;5053817;28;20470;-75
2022/01/17 11:47:48;;;;;;;13.93;9.50;;;;;;;1.30;100.00;97348.78;5053787;28;20563;-75
2022/01/17 11:50:43;;;;;;;11.50;9.30;;;;;;;1.56;100.00;97365.53;5037230;28;20441;-75
2022/01/17 11:53:09;;;;;;;16.17;10.77;;;;;;;1.60;100.00;97358.81;5052927;28;20448;-75
2022/01/17 11:55:42;;;;;;;12.80;7.43;;;;;;;1.56;100.00;97345.47;5053716;28;20940;-75
2022/01/17 11:58:25;;;;;;;8.97;6.40;;;;;;;1.54;100.00;97346.75;5053494;28;20470;-75
2022/01/17 12:00:58;;;;;;;8.63;7.10;;;;;;;1.53;100.00;97350.38;5053551;28;20436;-75